createdAt,value
2022-10-08T00:00:11.525Z,2.10
2022-10-08T00:02:39.909Z,2.43
2022-10-08T00:05:10.815Z,2.20
2022-10-08T00:07:42.057Z,1.90
2022-10-08T00:10:11.087Z,2.87
2022-10-08T00:12:40.880Z,1.87
2022-10-08T00:15:10.717Z,2.50
2022-10-08T00:17:39.326Z,2.10
2022-10-08T00:20:09.660Z,2.40
2022-10-08T00:22:38.108Z,2.27
2022-10-08T00:25:07.882Z,3.40
2022-10-08T00:27:36.263Z,2.10
2022-10-08T00:30:07.854Z,2.37
2022-10-08T00:32:36.252Z,2.23
2022-10-08T00:35:05.136Z,2.30
2022-10-08T00:37:33.534Z,2.37
2022-10-08T00:40:01.977Z,1.83
2022-10-08T00:42:30.382Z,2.40
2022-10-08T00:45:02.099Z,2.23
2022-10-08T00:47:46.146Z,2.83
2022-10-08T00:50:20.600Z,2.33
2022-10-08T00:52:55.254Z,2.13
2022-10-08T00:55:27.537Z,2.77
2022-10-08T00:58:02.150Z,2.83
2022-10-08T01:00:33.255Z,2.47
2022-10-08T01:03:03.981Z,2.70
2022-10-08T01:05:50.326Z,2.63
2022-10-08T01:08:34.881Z,2.97
2022-10-08T01:11:19.950Z,2.80
2022-10-08T01:13:57.341Z,3.13
2022-10-08T01:16:34.392Z,3.23
2022-10-08T01:19:28.710Z,3.13
2022-10-08T01:22:17.511Z,4.10
2022-10-08T01:25:07.336Z,4.13
2022-10-08T01:27:44.359Z,3.20
2022-10-08T01:30:18.900Z,2.70
2022-10-08T01:32:57.630Z,3.37
2022-10-08T01:35:31.174Z,3.50
2022-10-08T01:38:06.967Z,3.20
2022-10-08T01:40:38.735Z,2.90
2022-10-08T01:43:13.542Z,2.73
2022-10-08T01:45:49.120Z,3.20
2022-10-08T01:48:25.917Z,2.53
2022-10-08T01:51:01.209Z,2.83
2022-10-08T01:53:35.766Z,3.17
2022-10-08T01:56:07.519Z,3.47
2022-10-08T01:58:49.948Z,3.17
2022-10-08T02:01:28.763Z,3.13
2022-10-08T02:04:15.034Z,3.70
2022-10-08T02:06:50.759Z,3.30
2022-10-08T02:09:20.106Z,3.33
2022-10-08T02:11:49.342Z,3.77
2022-10-08T02:14:21.667Z,3.30
2022-10-08T02:16:59.123Z,3.43
2022-10-08T02:19:43.115Z,3.83
2022-10-08T02:22:17.126Z,3.70
2022-10-08T02:24:52.544Z,3.33
2022-10-08T02:27:30.461Z,3.93
2022-10-08T02:30:09.269Z,3.43
2022-10-08T02:32:49.089Z,3.30
2022-10-08T02:35:25.293Z,3.63
2022-10-08T02:38:01.650Z,3.80
2022-10-08T02:40:33.729Z,3.20
2022-10-08T02:43:11.238Z,3.37
2022-10-08T02:45:47.147Z,3.60
2022-10-08T02:48:25.054Z,3.40
2022-10-08T02:50:56.445Z,3.40
2022-10-08T02:53:26.769Z,3.70
2022-10-08T02:56:10.516Z,3.77
2022-10-08T02:58:39.686Z,3.23
2022-10-08T03:01:18.332Z,3.77
2022-10-08T03:03:55.065Z,3.83
2022-10-08T03:06:23.718Z,3.57
2022-10-08T03:08:55.117Z,3.40
2022-10-08T03:11:24.345Z,3.40
2022-10-08T03:13:57.411Z,3.70
2022-10-08T03:16:38.868Z,3.30
2022-10-08T03:19:10.370Z,3.20
2022-10-08T03:21:40.993Z,3.37
2022-10-08T03:24:12.014Z,3.33
2022-10-08T03:26:40.958Z,2.87
2022-10-08T03:29:10.085Z,3.43
2022-10-08T03:31:40.066Z,3.10
2022-10-08T03:34:13.490Z,4.20
2022-10-08T03:36:41.967Z,2.63
2022-10-08T03:39:11.864Z,2.97
2022-10-08T03:41:41.445Z,2.93
2022-10-08T03:44:12.331Z,3.03
2022-10-08T03:46:42.051Z,3.97
2022-10-08T03:49:10.438Z,2.70
2022-10-08T03:51:39.685Z,3.17
2022-10-08T03:54:08.221Z,3.33
2022-10-08T03:56:36.611Z,2.60
2022-10-08T03:59:05.350Z,3.30
2022-10-08T04:01:34.142Z,2.60
2022-10-08T04:04:04.056Z,3.03
2022-10-08T04:06:32.849Z,3.00
2022-10-08T04:09:01.708Z,2.60
2022-10-08T04:11:31.014Z,3.10
2022-10-08T04:14:01.554Z,2.60
2022-10-08T04:16:30.023Z,2.40
2022-10-08T04:18:58.460Z,2.50
2022-10-08T04:21:31.314Z,2.67
2022-10-08T04:23:59.771Z,2.57
2022-10-08T04:26:28.229Z,3.50
2022-10-08T04:28:56.655Z,2.60
2022-10-08T04:31:25.196Z,2.80
2022-10-08T04:33:53.844Z,3.47
2022-10-08T04:36:24.708Z,3.43
2022-10-08T04:38:54.555Z,2.90
2022-10-08T04:41:25.358Z,3.60
2022-10-08T04:43:55.993Z,2.87
2022-10-08T04:46:24.674Z,2.80
2022-10-08T04:48:56.285Z,2.73
2022-10-08T04:51:27.019Z,2.57
2022-10-08T04:53:58.778Z,2.90
2022-10-08T04:56:31.485Z,2.80
2022-10-08T04:59:00.957Z,2.70
2022-10-08T05:01:31.271Z,2.90
2022-10-08T05:04:01.120Z,2.53
2022-10-08T05:06:32.513Z,2.80
2022-10-08T05:09:04.113Z,2.60
2022-10-08T05:11:33.932Z,2.87
2022-10-08T05:14:03.260Z,2.93
2022-10-08T05:16:32.147Z,2.80
2022-10-08T05:19:00.686Z,2.60
2022-10-08T05:21:32.076Z,2.43
2022-10-08T05:24:04.458Z,2.53
2022-10-08T05:26:56.876Z,2.33
2022-10-08T05:29:24.093Z,2.83
2022-10-08T05:31:52.923Z,3.40
2022-10-08T05:34:21.499Z,2.93
2022-10-08T05:36:49.921Z,3.03
2022-10-08T05:39:19.685Z,3.13
2022-10-08T05:41:48.083Z,2.80
2022-10-08T05:44:16.499Z,2.90
2022-10-08T05:46:44.984Z,2.33
2022-10-08T05:49:19.944Z,2.87
2022-10-08T05:51:49.994Z,2.67
2022-10-08T05:54:20.781Z,2.80
2022-10-08T05:56:49.793Z,2.67
2022-10-08T05:59:21.428Z,2.90
2022-10-08T06:01:50.864Z,2.33
2022-10-08T06:04:20.153Z,2.50
2022-10-08T06:06:49.680Z,2.83
2022-10-08T06:09:22.065Z,2.40
2022-10-08T06:11:50.818Z,2.50
2022-10-08T06:14:20.272Z,2.70
2022-10-08T06:16:49.247Z,3.00
2022-10-08T06:19:18.193Z,3.17
2022-10-08T06:21:46.653Z,2.60
2022-10-08T06:24:15.617Z,3.30
2022-10-08T06:26:45.587Z,2.57
2022-10-08T06:29:17.789Z,3.37
2022-10-08T06:31:47.249Z,2.73
2022-10-08T06:34:16.671Z,2.60
2022-10-08T06:36:45.233Z,2.10
2022-10-08T06:39:16.368Z,2.77
2022-10-08T06:41:46.140Z,2.40
2022-10-08T06:44:18.920Z,2.07
2022-10-08T06:46:47.406Z,2.83
2022-10-08T06:49:15.825Z,2.40
2022-10-08T06:51:44.731Z,2.20
2022-10-08T06:54:13.470Z,2.10
2022-10-08T06:56:41.861Z,2.10
2022-10-08T06:59:11.834Z,2.13
2022-10-08T07:01:40.342Z,2.10
2022-10-08T07:04:11.982Z,2.17
2022-10-08T07:06:40.414Z,2.40
2022-10-08T07:09:10.392Z,2.50
2022-10-08T07:11:39.919Z,2.13
2022-10-08T07:14:08.664Z,2.20
2022-10-08T07:16:38.811Z,2.20
2022-10-08T07:19:07.263Z,2.10
2022-10-08T07:21:35.677Z,2.00
2022-10-08T07:24:04.230Z,2.13
2022-10-08T07:26:35.944Z,2.10
2022-10-08T07:29:08.205Z,1.90
2022-10-08T07:31:39.739Z,1.93
2022-10-08T07:34:12.486Z,1.97
2022-10-08T07:36:41.868Z,2.00
2022-10-08T07:39:14.832Z,1.90
2022-10-08T07:41:43.635Z,1.90
2022-10-08T07:44:13.702Z,2.23
2022-10-08T07:46:47.586Z,2.07
2022-10-08T07:49:17.790Z,2.37
2022-10-08T07:51:47.107Z,1.97
2022-10-08T07:54:17.972Z,2.00
2022-10-08T07:56:46.569Z,2.03
2022-10-08T07:59:15.996Z,1.80
2022-10-08T08:01:46.546Z,2.03
2022-10-08T08:04:15.573Z,1.63
2022-10-08T08:06:48.552Z,2.73
2022-10-08T08:09:18.194Z,1.90
2022-10-08T08:11:47.034Z,1.80
2022-10-08T08:14:16.084Z,1.30
2022-10-08T08:16:46.283Z,1.40
2022-10-08T08:19:14.768Z,1.40
2022-10-08T08:21:43.193Z,1.60
2022-10-08T08:24:15.130Z,1.23
2022-10-08T08:26:44.718Z,1.50
2022-10-08T08:29:16.632Z,1.10
2022-10-08T08:31:48.642Z,1.10
2022-10-08T08:34:20.490Z,1.20
2022-10-08T08:36:53.695Z,0.87
2022-10-08T08:39:25.354Z,1.33
2022-10-08T08:42:19.087Z,1.10
2022-10-08T08:44:57.167Z,1.20
2022-10-08T08:47:35.746Z,1.10
2022-10-08T08:50:14.602Z,1.40
2022-10-08T08:52:45.355Z,1.20
2022-10-08T08:55:18.668Z,1.23
2022-10-08T08:57:58.238Z,1.33
2022-10-08T09:00:36.016Z,1.10
2022-10-08T09:03:17.944Z,1.20
2022-10-08T09:05:50.820Z,1.83
2022-10-08T09:08:25.100Z,1.60
2022-10-08T09:10:58.484Z,1.83
2022-10-08T09:13:32.679Z,1.50
2022-10-08T09:16:01.962Z,1.43
2022-10-08T09:18:33.460Z,1.20
2022-10-08T09:21:02.068Z,1.30
2022-10-08T09:23:30.541Z,1.30
2022-10-08T09:26:05.694Z,0.90
2022-10-08T09:28:47.371Z,2.43
2022-10-08T09:31:27.686Z,1.17
2022-10-08T09:34:06.207Z,1.10
2022-10-08T09:36:39.100Z,0.80
2022-10-08T09:39:21.122Z,1.50
2022-10-08T09:42:13.993Z,1.10
2022-10-08T09:44:45.397Z,1.80
2022-10-08T09:47:16.606Z,1.60
2022-10-08T09:49:49.905Z,1.40
2022-10-08T09:52:25.989Z,2.47
2022-10-08T09:55:03.290Z,2.67
2022-10-08T09:57:34.142Z,2.33
2022-10-08T10:00:06.425Z,1.40
2022-10-08T10:02:39.792Z,1.37
2022-10-08T10:05:25.595Z,1.50
2022-10-08T10:07:55.514Z,1.83
2022-10-08T10:10:29.731Z,1.17
2022-10-08T10:13:05.870Z,1.77
2022-10-08T10:15:42.019Z,0.83
2022-10-08T10:18:17.679Z,1.20
2022-10-08T10:20:52.085Z,1.20
2022-10-08T10:23:27.903Z,1.40
2022-10-08T10:26:06.633Z,1.43
2022-10-08T10:28:45.662Z,1.73
2022-10-08T10:31:23.432Z,2.30
2022-10-08T10:33:58.605Z,1.67
2022-10-08T10:36:35.729Z,1.57
2022-10-08T10:39:23.961Z,1.00
2022-10-08T10:42:01.967Z,1.27
2022-10-08T10:44:44.383Z,1.20
2022-10-08T10:47:14.220Z,1.30
2022-10-08T10:49:44.460Z,1.40
2022-10-08T10:52:42.701Z,1.20
2022-10-08T10:55:24.908Z,1.07
2022-10-08T10:58:18.844Z,1.50
2022-10-08T11:01:02.178Z,1.30
2022-10-08T11:03:41.343Z,1.20
2022-10-08T11:06:34.362Z,1.23
2022-10-08T11:09:17.316Z,1.40
2022-10-08T11:11:52.742Z,1.40
2022-10-08T11:14:44.652Z,1.30
2022-10-08T11:17:39.851Z,1.70
2022-10-08T11:20:29.737Z,2.10
2022-10-08T11:23:15.107Z,1.27
2022-10-08T11:26:20.418Z,1.47
2022-10-08T11:28:55.387Z,1.80
2022-10-08T11:31:36.959Z,1.37
2022-10-08T11:34:14.568Z,1.53
2022-10-08T11:36:56.139Z,1.77
2022-10-08T11:39:36.648Z,1.70
2022-10-08T11:42:19.787Z,2.60
2022-10-08T11:44:48.453Z,1.77
2022-10-08T11:47:49.520Z,1.33
2022-10-08T11:50:32.837Z,1.73
2022-10-08T11:53:18.369Z,1.30
2022-10-08T11:55:54.790Z,1.50
2022-10-08T11:58:30.913Z,1.40
2022-10-08T12:01:06.517Z,1.70
2022-10-08T12:03:38.277Z,1.83
2022-10-08T12:06:24.153Z,1.40
2022-10-08T12:08:57.240Z,1.77
2022-10-08T12:11:29.859Z,1.87
2022-10-08T12:14:44.771Z,1.80
2022-10-08T12:17:14.094Z,1.90
2022-10-08T12:20:19.904Z,1.70
2022-10-08T12:23:07.009Z,2.10
2022-10-08T12:25:44.201Z,2.07
2022-10-08T12:28:50.688Z,2.00
2022-10-08T12:31:32.275Z,1.90
2022-10-08T12:34:17.553Z,2.10
2022-10-08T12:37:04.214Z,2.20
2022-10-08T12:39:41.143Z,2.37
2022-10-08T12:42:20.195Z,2.23
2022-10-08T12:45:05.437Z,2.07
2022-10-08T12:47:50.581Z,2.03
2022-10-08T12:50:43.589Z,1.80
2022-10-08T12:53:17.400Z,2.20
2022-10-08T12:55:51.442Z,1.70
2022-10-08T12:58:25.521Z,2.50
2022-10-08T13:00:59.833Z,1.67
2022-10-08T13:03:29.869Z,1.60
2022-10-08T13:05:58.885Z,1.63
2022-10-08T13:08:38.887Z,1.80
2022-10-08T13:11:11.646Z,1.50
2022-10-08T13:13:49.138Z,1.80
2022-10-08T13:16:21.469Z,1.73
2022-10-08T13:19:00.761Z,2.00
2022-10-08T13:21:39.409Z,1.83
2022-10-08T13:24:41.382Z,2.00
2022-10-08T13:27:26.575Z,2.33
2022-10-08T13:29:55.753Z,1.80
2022-10-08T13:32:26.562Z,1.83
2022-10-08T13:34:59.159Z,2.27
2022-10-08T13:37:36.272Z,1.80
2022-10-08T13:40:18.858Z,1.73
2022-10-08T13:42:51.622Z,2.10
2022-10-08T13:45:23.053Z,1.77
2022-10-08T13:47:52.167Z,1.80
2022-10-08T13:50:24.061Z,2.03
2022-10-08T13:52:57.106Z,1.60
2022-10-08T13:55:29.057Z,2.00
2022-10-08T13:58:01.864Z,1.70
2022-10-08T14:00:32.432Z,2.03
2022-10-08T14:03:00.946Z,2.30
2022-10-08T14:05:35.930Z,1.90
2022-10-08T14:08:11.643Z,1.97
2022-10-08T14:10:41.400Z,1.73
2022-10-08T14:13:13.659Z,1.90
2022-10-08T14:15:43.549Z,1.80
2022-10-08T14:18:12.406Z,1.70
2022-10-08T14:20:42.511Z,2.27
2022-10-08T14:23:14.042Z,1.37
2022-10-08T14:25:42.482Z,1.13
2022-10-08T14:28:10.910Z,1.40
2022-10-08T14:30:39.741Z,0.90
2022-10-08T14:33:11.481Z,0.80
2022-10-08T14:35:42.001Z,0.90
2022-10-08T14:38:10.742Z,0.90
2022-10-08T14:40:39.681Z,1.20
2022-10-08T14:43:08.090Z,1.30
2022-10-08T14:45:36.992Z,1.10
2022-10-08T14:48:05.577Z,0.90
2022-10-08T14:50:34.053Z,1.00
2022-10-08T14:53:04.058Z,1.10
2022-10-08T14:55:41.030Z,1.20
2022-10-08T14:58:21.281Z,1.00
2022-10-08T15:00:54.420Z,1.87
2022-10-08T15:03:24.056Z,1.20
2022-10-08T15:05:54.024Z,1.20
2022-10-08T15:08:23.766Z,1.23
2022-10-08T15:10:52.510Z,1.30
2022-10-08T15:13:21.098Z,1.30
2022-10-08T15:15:50.354Z,1.20
2022-10-08T15:18:19.306Z,1.30
2022-10-08T15:20:56.011Z,1.93
2022-10-08T15:23:27.474Z,1.90
2022-10-08T15:25:57.917Z,1.80
2022-10-08T15:28:27.798Z,1.40
2022-10-08T15:31:05.969Z,1.60
2022-10-08T15:33:38.861Z,1.70
2022-10-08T15:36:19.563Z,1.63
2022-10-08T15:38:56.874Z,1.80
2022-10-08T15:41:27.189Z,1.83
2022-10-08T15:43:56.090Z,1.87
2022-10-08T15:46:26.071Z,1.90
2022-10-08T15:48:56.545Z,1.80
2022-10-08T15:51:25.938Z,2.00
2022-10-08T15:53:55.809Z,1.90
2022-10-08T15:56:24.202Z,1.87
2022-10-08T15:58:52.757Z,1.60
2022-10-08T16:01:24.378Z,2.17
2022-10-08T16:03:55.467Z,1.30
2022-10-08T16:06:26.591Z,1.93
2022-10-08T16:08:58.539Z,1.40
2022-10-08T16:11:29.960Z,1.47
2022-10-08T16:14:02.581Z,1.40
2022-10-08T16:16:31.494Z,1.80
2022-10-08T16:19:02.914Z,1.70
2022-10-08T16:21:34.373Z,1.57
2022-10-08T16:24:05.210Z,1.83
2022-10-08T16:26:35.481Z,1.47
2022-10-08T16:29:07.863Z,1.97
2022-10-08T16:31:38.836Z,2.07
2022-10-08T16:34:12.002Z,1.70
2022-10-08T16:36:40.729Z,2.17
2022-10-08T16:39:13.896Z,2.20
2022-10-08T16:41:42.572Z,4.03
2022-10-08T16:44:14.278Z,1.77
2022-10-08T16:46:48.153Z,5.40
2022-10-08T16:49:24.049Z,2.10
2022-10-08T16:51:56.018Z,1.17
2022-10-08T16:54:26.030Z,2.70
2022-10-08T16:56:54.772Z,1.43
2022-10-08T16:59:27.089Z,1.83
2022-10-08T17:01:58.444Z,1.33
2022-10-08T17:04:29.708Z,1.50
2022-10-08T17:06:58.518Z,1.77
2022-10-08T17:09:28.237Z,1.77
2022-10-08T17:11:56.665Z,3.17
2022-10-08T17:14:25.067Z,3.77
2022-10-08T17:16:53.626Z,3.37
2022-10-08T17:19:22.105Z,2.20
2022-10-08T17:21:50.517Z,2.43
2022-10-08T17:24:19.594Z,2.30
2022-10-08T17:26:50.627Z,2.30
2022-10-08T17:29:19.578Z,2.07
2022-10-08T17:31:48.216Z,2.90
2022-10-08T17:34:16.708Z,4.10
2022-10-08T17:36:45.311Z,3.60
2022-10-08T17:39:15.918Z,3.80
2022-10-08T17:41:44.947Z,3.33
2022-10-08T17:44:14.929Z,2.40
2022-10-08T17:46:47.227Z,1.93
2022-10-08T17:49:19.476Z,2.20
2022-10-08T17:51:50.972Z,2.50
2022-10-08T17:54:21.297Z,3.00
2022-10-08T17:56:50.869Z,2.50
2022-10-08T17:59:22.670Z,3.13
2022-10-08T18:01:51.903Z,3.60
2022-10-08T18:04:20.902Z,3.20
2022-10-08T18:06:50.610Z,4.10
2022-10-08T18:09:22.834Z,5.03
2022-10-08T18:11:53.454Z,5.20
2022-10-08T18:14:23.843Z,5.43
2022-10-08T18:16:52.382Z,4.27
2022-10-08T18:19:21.049Z,4.70
2022-10-08T18:21:49.584Z,2.30
2022-10-08T18:24:19.153Z,1.80
2022-10-08T18:26:47.685Z,2.53
2022-10-08T18:29:16.724Z,3.87
2022-10-08T18:31:47.420Z,2.93
2022-10-08T18:34:18.793Z,3.67
2022-10-08T18:36:47.844Z,2.57
2022-10-08T18:39:18.692Z,3.40
2022-10-08T18:41:50.043Z,3.80
2022-10-08T18:44:22.209Z,3.40
2022-10-08T18:46:52.681Z,3.27
2022-10-08T18:49:24.133Z,2.83
2022-10-08T18:51:52.547Z,2.20
2022-10-08T18:54:21.161Z,2.20
2022-10-08T18:56:49.774Z,2.53
2022-10-08T18:59:19.111Z,1.90
2022-10-08T19:01:49.089Z,2.23
2022-10-08T19:04:22.015Z,1.87
2022-10-08T19:06:53.347Z,2.10
2022-10-08T19:09:22.699Z,1.87
2022-10-08T19:11:54.044Z,2.60
2022-10-08T19:14:24.103Z,2.10
2022-10-08T19:16:53.816Z,2.60
2022-10-08T19:19:27.301Z,2.50
2022-10-08T19:21:56.755Z,2.40
2022-10-08T19:24:27.619Z,2.27
2022-10-08T19:26:57.284Z,3.10
2022-10-08T19:29:31.826Z,2.90
2022-10-08T19:32:00.307Z,2.33
2022-10-08T19:34:30.578Z,2.03
2022-10-08T19:36:59.492Z,3.20
2022-10-08T19:39:30.806Z,3.63
2022-10-08T19:41:59.810Z,3.00
2022-10-08T19:44:28.767Z,2.70
2022-10-08T19:46:57.598Z,2.60
2022-10-08T19:49:26.094Z,1.30
2022-10-08T19:51:56.231Z,1.80
2022-10-08T19:54:25.642Z,1.43
2022-10-08T19:56:55.838Z,1.10
2022-10-08T19:59:24.600Z,1.10
2022-10-08T20:01:53.353Z,1.30
2022-10-08T20:04:23.371Z,2.17
2022-10-08T20:06:52.242Z,1.13
2022-10-08T20:09:22.018Z,1.40
2022-10-08T20:11:50.738Z,1.53
2022-10-08T20:14:20.026Z,1.43
2022-10-08T20:16:49.018Z,1.50
2022-10-08T20:19:20.622Z,1.40
2022-10-08T20:21:51.557Z,1.97
2022-10-08T20:24:21.364Z,1.63
2022-10-08T20:26:50.056Z,1.43
2022-10-08T20:29:22.050Z,1.23
2022-10-08T20:31:54.868Z,1.60
2022-10-08T20:34:26.937Z,1.20
2022-10-08T20:36:57.839Z,1.60
2022-10-08T20:39:27.581Z,1.20
2022-10-08T20:41:56.557Z,1.30
2022-10-08T20:44:25.057Z,1.33
2022-10-08T20:46:54.121Z,1.93
2022-10-08T20:49:22.633Z,1.37
2022-10-08T20:51:51.034Z,1.47
2022-10-08T20:54:19.486Z,1.50
2022-10-08T20:56:49.243Z,1.23
2022-10-08T20:59:20.095Z,1.37
2022-10-08T21:01:51.383Z,1.20
2022-10-08T21:04:20.663Z,1.20
2022-10-08T21:06:51.619Z,1.40
2022-10-08T21:09:22.551Z,1.53
2022-10-08T21:11:53.634Z,1.60
2022-10-08T21:14:23.596Z,1.20
2022-10-08T21:16:53.414Z,1.87
2022-10-08T21:19:23.207Z,1.17
2022-10-08T21:21:52.787Z,1.30
2022-10-08T21:24:21.801Z,1.53
2022-10-08T21:26:51.782Z,1.43
2022-10-08T21:29:20.453Z,1.23
2022-10-08T21:31:49.447Z,1.40
2022-10-08T21:34:18.231Z,1.40
2022-10-08T21:36:46.627Z,1.10
2022-10-08T21:39:18.250Z,1.30
2022-10-08T21:41:47.454Z,1.83
2022-10-08T21:44:17.367Z,1.23
2022-10-08T21:46:46.300Z,2.00
2022-10-08T21:49:17.650Z,1.10
2022-10-08T21:51:46.149Z,1.20
2022-10-08T21:54:16.480Z,1.27
2022-10-08T21:56:45.584Z,1.40
2022-10-08T21:59:17.663Z,1.40
2022-10-08T22:01:48.848Z,1.23
2022-10-08T22:04:20.161Z,1.93
2022-10-08T22:06:52.380Z,1.17
2022-10-08T22:09:23.879Z,1.07
2022-10-08T22:11:54.159Z,1.47
2022-10-08T22:14:24.852Z,1.20
2022-10-08T22:16:53.834Z,1.50
2022-10-08T22:19:22.315Z,1.50
2022-10-08T22:21:51.419Z,1.80
2022-10-08T22:24:19.787Z,1.87
2022-10-08T22:26:49.300Z,2.00
2022-10-08T22:29:18.391Z,2.30
2022-10-08T22:31:48.194Z,1.50
2022-10-08T22:34:16.952Z,1.43
2022-10-08T22:36:46.136Z,1.00
2022-10-08T22:39:14.593Z,1.20
2022-10-08T22:41:43.255Z,1.00
2022-10-08T22:44:11.851Z,1.30
2022-10-08T22:46:40.620Z,0.90
2022-10-08T22:49:13.100Z,1.07
2022-10-08T22:51:43.728Z,1.73
2022-10-08T22:54:12.201Z,2.03
2022-10-08T22:56:40.631Z,1.43
2022-10-08T22:59:10.511Z,1.37
2022-10-08T23:01:39.270Z,1.30
2022-10-08T23:04:07.667Z,1.57
2022-10-08T23:06:37.485Z,1.97
2022-10-08T23:09:08.835Z,1.40
2022-10-08T23:11:37.260Z,1.70
2022-10-08T23:14:06.866Z,1.40
2022-10-08T23:16:36.353Z,1.03
2022-10-08T23:19:08.706Z,1.40
2022-10-08T23:21:42.486Z,1.17
2022-10-08T23:24:12.677Z,1.00
2022-10-08T23:26:41.424Z,0.90
2022-10-08T23:29:12.644Z,1.27
2022-10-08T23:31:41.124Z,1.53
2022-10-08T23:34:10.029Z,0.90
2022-10-08T23:36:42.913Z,1.33
2022-10-08T23:39:14.919Z,1.27
2022-10-08T23:41:44.247Z,1.30
2022-10-08T23:44:13.478Z,1.23
2022-10-08T23:46:41.867Z,1.27
2022-10-08T23:49:10.370Z,1.17
2022-10-08T23:51:40.667Z,1.30
2022-10-08T23:54:09.505Z,1.50
2022-10-08T23:56:37.899Z,1.43
2022-10-08T23:59:06.346Z,3.00
